sensor_id;sensor_type;location;lat;lon;timestamp;temperature;humidity
35246;DHT22;21379;50.962;6.960;2023-05-07T00:00:37;14.40;99.90
35246;DHT22;21379;50.962;6.960;2023-05-07T00:03:04;14.40;99.90
35246;DHT22;21379;50.962;6.960;2023-05-07T00:05:31;14.40;99.90
35246;DHT22;21379;50.962;6.960;2023-05-07T00:07:57;14.40;99.90
35246;DHT22;21379;50.962;6.960;2023-05-07T00:10:25;14.40;99.90
35246;DHT22;21379;50.962;6.960;2023-05-07T00:12:52;14.40;99.90
35246;DHT22;21379;50.962;6.960;2023-05-07T00:15:20;14.40;99.90
35246;DHT22;21379;50.962;6.960;2023-05-07T00:17:47;14.50;99.90
35246;DHT22;21379;50.962;6.960;2023-05-07T00:20:14;14.50;99.90
35246;DHT22;21379;50.962;6.960;2023-05-07T00:22:41;14.40;99.90
35246;DHT22;21379;50.962;6.960;2023-05-07T00:25:08;14.40;99.90
35246;DHT22;21379;50.962;6.960;2023-05-07T00:27:35;14.30;99.90
35246;DHT22;21379;50.962;6.960;2023-05-07T00:30:03;14.30;99.90
35246;DHT22;21379;50.962;6.960;2023-05-07T00:32:31;14.30;99.90
35246;DHT22;21379;50.962;6.960;2023-05-07T00:34:58;14.40;99.90
35246;DHT22;21379;50.962;6.960;2023-05-07T00:37:25;14.40;99.90
35246;DHT22;21379;50.962;6.960;2023-05-07T00:39:52;14.30;99.90
35246;DHT22;21379;50.962;6.960;2023-05-07T00:42:18;14.40;99.90
35246;DHT22;21379;50.962;6.960;2023-05-07T00:44:46;14.30;99.90
35246;DHT22;21379;50.962;6.960;2023-05-07T00:47:14;14.30;99.90
35246;DHT22;21379;50.962;6.960;2023-05-07T00:49:44;14.40;99.90
35246;DHT22;21379;50.962;6.960;2023-05-07T00:52:13;14.40;99.90
35246;DHT22;21379;50.962;6.960;2023-05-07T00:54:40;14.40;99.90
35246;DHT22;21379;50.962;6.960;2023-05-07T00:57:09;14.40;99.90
35246;DHT22;21379;50.962;6.960;2023-05-07T00:59:36;14.40;99.90
35246;DHT22;21379;50.962;6.960;2023-05-07T01:02:03;14.40;99.90
35246;DHT22;21379;50.962;6.960;2023-05-07T01:04:30;14.40;99.90
35246;DHT22;21379;50.962;6.960;2023-05-07T01:06:59;14.40;99.90
35246;DHT22;21379;50.962;6.960;2023-05-07T01:09:28;14.40;99.90
35246;DHT22;21379;50.962;6.960;2023-05-07T01:11:55;14.40;99.90
35246;DHT22;21379;50.962;6.960;2023-05-07T01:14:23;14.40;99.90
35246;DHT22;21379;50.962;6.960;2023-05-07T01:16:51;14.40;99.90
35246;DHT22;21379;50.962;6.960;2023-05-07T01:19:20;14.30;99.90
35246;DHT22;21379;50.962;6.960;2023-05-07T01:21:48;14.30;99.90
35246;DHT22;21379;50.962;6.960;2023-05-07T01:24:19;14.40;99.90
35246;DHT22;21379;50.962;6.960;2023-05-07T01:26:46;14.30;99.90
35246;DHT22;21379;50.962;6.960;2023-05-07T01:29:15;14.30;99.90
35246;DHT22;21379;50.962;6.960;2023-05-07T01:31:43;14.30;99.90
35246;DHT22;21379;50.962;6.960;2023-05-07T01:34:12;14.30;99.90
35246;DHT22;21379;50.962;6.960;2023-05-07T01:36:43;14.30;99.90
35246;DHT22;21379;50.962;6.960;2023-05-07T01:39:11;14.30;99.90
35246;DHT22;21379;50.962;6.960;2023-05-07T01:41:40;14.30;99.90
35246;DHT22;21379;50.962;6.960;2023-05-07T01:44:07;14.30;99.90
35246;DHT22;21379;50.962;6.960;2023-05-07T01:46:35;14.20;99.90
35246;DHT22;21379;50.962;6.960;2023-05-07T01:49:02;14.20;99.90
35246;DHT22;21379;50.962;6.960;2023-05-07T01:51:30;14.20;99.90
35246;DHT22;21379;50.962;6.960;2023-05-07T01:53:57;14.20;99.90
35246;DHT22;21379;50.962;6.960;2023-05-07T01:56:24;14.20;99.90
35246;DHT22;21379;50.962;6.960;2023-05-07T01:58:53;14.20;99.90
35246;DHT22;21379;50.962;6.960;2023-05-07T02:01:20;14.20;99.90
35246;DHT22;21379;50.962;6.960;2023-05-07T02:03:47;14.20;99.90
35246;DHT22;21379;50.962;6.960;2023-05-07T02:06:21;14.10;99.90
35246;DHT22;21379;50.962;6.960;2023-05-07T02:08:48;14.10;99.90
35246;DHT22;21379;50.962;6.960;2023-05-07T02:11:15;14.10;99.90
35246;DHT22;21379;50.962;6.960;2023-05-07T02:13:43;14.00;99.90
35246;DHT22;21379;50.962;6.960;2023-05-07T02:16:11;14.00;99.90
35246;DHT22;21379;50.962;6.960;2023-05-07T02:18:39;13.90;99.90
35246;DHT22;21379;50.962;6.960;2023-05-07T02:21:06;13.90;99.90
35246;DHT22;21379;50.962;6.960;2023-05-07T02:23:33;13.80;99.90
35246;DHT22;21379;50.962;6.960;2023-05-07T02:26:01;13.80;99.90
35246;DHT22;21379;50.962;6.960;2023-05-07T02:28:29;13.70;99.90
35246;DHT22;21379;50.962;6.960;2023-05-07T02:31:05;13.70;99.90
35246;DHT22;21379;50.962;6.960;2023-05-07T02:33:34;13.60;99.90
35246;DHT22;21379;50.962;6.960;2023-05-07T02:36:08;13.60;99.90
35246;DHT22;21379;50.962;6.960;2023-05-07T02:38:39;13.60;99.90
35246;DHT22;21379;50.962;6.960;2023-05-07T02:41:05;13.60;99.90
35246;DHT22;21379;50.962;6.960;2023-05-07T02:43:32;13.60;99.90
35246;DHT22;21379;50.962;6.960;2023-05-07T02:46:03;13.60;99.90
35246;DHT22;21379;50.962;6.960;2023-05-07T02:48:32;13.60;99.90
35246;DHT22;21379;50.962;6.960;2023-05-07T02:51:01;13.60;99.90
35246;DHT22;21379;50.962;6.960;2023-05-07T02:53:29;13.60;99.90
35246;DHT22;21379;50.962;6.960;2023-05-07T02:55:57;13.60;99.90
35246;DHT22;21379;50.962;6.960;2023-05-07T02:58:24;13.60;99.90
35246;DHT22;21379;50.962;6.960;2023-05-07T03:00:52;13.60;99.90
35246;DHT22;21379;50.962;6.960;2023-05-07T03:03:42;13.70;99.90
35246;DHT22;21379;50.962;6.960;2023-05-07T03:06:11;13.70;99.90
35246;DHT22;21379;50.962;6.960;2023-05-07T03:08:38;13.70;99.90
35246;DHT22;21379;50.962;6.960;2023-05-07T03:11:04;13.70;99.90
35246;DHT22;21379;50.962;6.960;2023-05-07T03:13:31;13.70;99.90
35246;DHT22;21379;50.962;6.960;2023-05-07T03:15:58;13.70;99.90
35246;DHT22;21379;50.962;6.960;2023-05-07T03:18:25;13.70;99.90
35246;DHT22;21379;50.962;6.960;2023-05-07T03:20:52;13.70;99.90
35246;DHT22;21379;50.962;6.960;2023-05-07T03:23:21;13.70;99.90
35246;DHT22;21379;50.962;6.960;2023-05-07T03:25:47;13.70;99.90
35246;DHT22;21379;50.962;6.960;2023-05-07T03:28:15;13.60;99.90
35246;DHT22;21379;50.962;6.960;2023-05-07T03:30:48;13.60;99.90
35246;DHT22;21379;50.962;6.960;2023-05-07T03:33:15;13.50;99.90
35246;DHT22;21379;50.962;6.960;2023-05-07T03:35:42;13.50;99.90
35246;DHT22;21379;50.962;6.960;2023-05-07T03:38:09;13.40;99.90
35246;DHT22;21379;50.962;6.960;2023-05-07T03:40:39;13.40;99.90
35246;DHT22;21379;50.962;6.960;2023-05-07T03:43:06;13.40;99.90
35246;DHT22;21379;50.962;6.960;2023-05-07T03:45:36;13.30;99.90
35246;DHT22;21379;50.962;6.960;2023-05-07T03:48:09;13.30;99.90
35246;DHT22;21379;50.962;6.960;2023-05-07T03:50:37;13.30;99.90
35246;DHT22;21379;50.962;6.960;2023-05-07T03:53:04;13.20;99.90
35246;DHT22;21379;50.962;6.960;2023-05-07T03:55:33;13.20;99.90
35246;DHT22;21379;50.962;6.960;2023-05-07T03:58:02;13.20;99.90
35246;DHT22;21379;50.962;6.960;2023-05-07T04:00:29;13.20;99.90
35246;DHT22;21379;50.962;6.960;2023-05-07T04:02:59;13.20;99.90
35246;DHT22;21379;50.962;6.960;2023-05-07T04:05:30;13.20;99.90
35246;DHT22;21379;50.962;6.960;2023-05-07T04:08:01;13.20;99.90
35246;DHT22;21379;50.962;6.960;2023-05-07T04:10:35;13.20;99.90
35246;DHT22;21379;50.962;6.960;2023-05-07T04:13:08;13.30;99.90
35246;DHT22;21379;50.962;6.960;2023-05-07T04:15:35;13.30;99.90
35246;DHT22;21379;50.962;6.960;2023-05-07T04:18:04;13.30;99.90
35246;DHT22;21379;50.962;6.960;2023-05-07T04:20:34;13.30;99.90
35246;DHT22;21379;50.962;6.960;2023-05-07T04:23:02;13.40;99.90
35246;DHT22;21379;50.962;6.960;2023-05-07T04:25:30;13.50;99.90
35246;DHT22;21379;50.962;6.960;2023-05-07T04:28:04;13.50;99.90
35246;DHT22;21379;50.962;6.960;2023-05-07T04:30:33;13.50;99.90
35246;DHT22;21379;50.962;6.960;2023-05-07T04:33:02;13.60;99.90
35246;DHT22;21379;50.962;6.960;2023-05-07T04:35:30;13.70;99.90
35246;DHT22;21379;50.962;6.960;2023-05-07T04:37:58;13.70;99.90
35246;DHT22;21379;50.962;6.960;2023-05-07T04:40:25;13.80;99.90
35246;DHT22;21379;50.962;6.960;2023-05-07T04:42:52;13.80;99.90
35246;DHT22;21379;50.962;6.960;2023-05-07T04:45:20;13.80;99.90
35246;DHT22;21379;50.962;6.960;2023-05-07T04:47:49;13.80;99.90
35246;DHT22;21379;50.962;6.960;2023-05-07T04:50:16;13.90;99.90
35246;DHT22;21379;50.962;6.960;2023-05-07T04:52:46;14.00;99.90
35246;DHT22;21379;50.962;6.960;2023-05-07T04:55:13;14.00;99.90
35246;DHT22;21379;50.962;6.960;2023-05-07T04:57:41;14.10;99.90
35246;DHT22;21379;50.962;6.960;2023-05-07T05:00:11;14.10;99.90
35246;DHT22;21379;50.962;6.960;2023-05-07T05:02:40;14.10;99.90
35246;DHT22;21379;50.962;6.960;2023-05-07T05:05:09;14.20;99.90
35246;DHT22;21379;50.962;6.960;2023-05-07T05:07:36;14.30;99.90
35246;DHT22;21379;50.962;6.960;2023-05-07T05:10:05;14.30;99.90
35246;DHT22;21379;50.962;6.960;2023-05-07T05:12:36;14.40;99.90
35246;DHT22;21379;50.962;6.960;2023-05-07T05:15:04;14.40;99.90
35246;DHT22;21379;50.962;6.960;2023-05-07T05:17:32;14.40;99.90
35246;DHT22;21379;50.962;6.960;2023-05-07T05:20:00;14.50;99.90
35246;DHT22;21379;50.962;6.960;2023-05-07T05:22:29;14.50;99.90
35246;DHT22;21379;50.962;6.960;2023-05-07T05:24:58;14.60;99.90
35246;DHT22;21379;50.962;6.960;2023-05-07T05:27:26;14.60;99.90
35246;DHT22;21379;50.962;6.960;2023-05-07T05:29:53;14.60;99.90
35246;DHT22;21379;50.962;6.960;2023-05-07T05:32:21;14.60;99.90
35246;DHT22;21379;50.962;6.960;2023-05-07T05:34:49;14.60;99.90
35246;DHT22;21379;50.962;6.960;2023-05-07T05:37:16;14.60;99.90
35246;DHT22;21379;50.962;6.960;2023-05-07T05:39:46;14.70;99.90
35246;DHT22;21379;50.962;6.960;2023-05-07T05:42:13;14.80;99.90
35246;DHT22;21379;50.962;6.960;2023-05-07T05:44:39;14.80;99.90
35246;DHT22;21379;50.962;6.960;2023-05-07T05:47:06;14.90;99.90
35246;DHT22;21379;50.962;6.960;2023-05-07T05:49:34;15.00;99.90
35246;DHT22;21379;50.962;6.960;2023-05-07T05:52:03;15.00;99.90
35246;DHT22;21379;50.962;6.960;2023-05-07T05:54:30;15.00;99.90
35246;DHT22;21379;50.962;6.960;2023-05-07T05:56:59;15.10;99.90
35246;DHT22;21379;50.962;6.960;2023-05-07T05:59:26;15.10;99.90
35246;DHT22;21379;50.962;6.960;2023-05-07T06:01:53;15.20;99.90
35246;DHT22;21379;50.962;6.960;2023-05-07T06:04:20;15.30;99.90
35246;DHT22;21379;50.962;6.960;2023-05-07T06:06:48;15.40;99.90
35246;DHT22;21379;50.962;6.960;2023-05-07T06:09:15;15.50;99.90
35246;DHT22;21379;50.962;6.960;2023-05-07T06:11:43;15.60;99.90
35246;DHT22;21379;50.962;6.960;2023-05-07T06:14:13;15.60;99.90
35246;DHT22;21379;50.962;6.960;2023-05-07T06:16:40;15.70;99.90
35246;DHT22;21379;50.962;6.960;2023-05-07T06:19:07;15.90;99.90
35246;DHT22;21379;50.962;6.960;2023-05-07T06:21:34;16.00;99.90
35246;DHT22;21379;50.962;6.960;2023-05-07T06:24:01;16.10;99.90
35246;DHT22;21379;50.962;6.960;2023-05-07T06:26:28;16.10;99.90
35246;DHT22;21379;50.962;6.960;2023-05-07T06:28:55;16.00;99.90
35246;DHT22;21379;50.962;6.960;2023-05-07T06:31:29;16.10;99.90
35246;DHT22;21379;50.962;6.960;2023-05-07T06:34:07;16.20;99.90
35246;DHT22;21379;50.962;6.960;2023-05-07T06:36:36;16.30;99.90
35246;DHT22;21379;50.962;6.960;2023-05-07T06:39:12;16.40;99.90
35246;DHT22;21379;50.962;6.960;2023-05-07T06:41:40;16.30;99.90
35246;DHT22;21379;50.962;6.960;2023-05-07T06:44:15;16.30;99.90
35246;DHT22;21379;50.962;6.960;2023-05-07T06:46:48;16.40;99.90
35246;DHT22;21379;50.962;6.960;2023-05-07T06:49:15;16.40;99.90
35246;DHT22;21379;50.962;6.960;2023-05-07T06:51:42;16.50;99.90
35246;DHT22;21379;50.962;6.960;2023-05-07T06:54:09;16.70;99.90
35246;DHT22;21379;50.962;6.960;2023-05-07T06:56:38;16.90;99.90
35246;DHT22;21379;50.962;6.960;2023-05-07T06:59:06;17.10;99.90
35246;DHT22;21379;50.962;6.960;2023-05-07T07:01:38;17.20;99.90
35246;DHT22;21379;50.962;6.960;2023-05-07T07:04:07;17.20;99.90
35246;DHT22;21379;50.962;6.960;2023-05-07T07:06:35;17.30;99.90
35246;DHT22;21379;50.962;6.960;2023-05-07T07:09:07;17.40;99.90
35246;DHT22;21379;50.962;6.960;2023-05-07T07:11:34;17.50;99.90
35246;DHT22;21379;50.962;6.960;2023-05-07T07:14:01;17.50;99.90
35246;DHT22;21379;50.962;6.960;2023-05-07T07:16:33;17.60;99.90
35246;DHT22;21379;50.962;6.960;2023-05-07T07:19:00;17.90;99.90
35246;DHT22;21379;50.962;6.960;2023-05-07T07:21:29;18.10;99.90
35246;DHT22;21379;50.962;6.960;2023-05-07T07:23:56;18.10;99.90
35246;DHT22;21379;50.962;6.960;2023-05-07T07:26:24;18.20;99.90
35246;DHT22;21379;50.962;6.960;2023-05-07T07:28:52;18.10;99.90
35246;DHT22;21379;50.962;6.960;2023-05-07T07:31:21;18.10;99.90
35246;DHT22;21379;50.962;6.960;2023-05-07T07:33:49;18.30;99.90
35246;DHT22;21379;50.962;6.960;2023-05-07T07:36:17;18.60;99.90
35246;DHT22;21379;50.962;6.960;2023-05-07T07:38:45;18.60;99.90
35246;DHT22;21379;50.962;6.960;2023-05-07T07:41:13;18.70;99.90
35246;DHT22;21379;50.962;6.960;2023-05-07T07:43:40;18.60;99.90
35246;DHT22;21379;50.962;6.960;2023-05-07T07:46:07;18.60;99.90
35246;DHT22;21379;50.962;6.960;2023-05-07T07:48:34;18.60;99.90
35246;DHT22;21379;50.962;6.960;2023-05-07T07:51:01;18.80;99.90
35246;DHT22;21379;50.962;6.960;2023-05-07T07:53:28;18.90;99.90
35246;DHT22;21379;50.962;6.960;2023-05-07T07:55:57;18.90;99.90
35246;DHT22;21379;50.962;6.960;2023-05-07T07:58:26;18.90;99.90
35246;DHT22;21379;50.962;6.960;2023-05-07T08:00:53;18.70;99.90
35246;DHT22;21379;50.962;6.960;2023-05-07T08:03:21;18.60;99.90
35246;DHT22;21379;50.962;6.960;2023-05-07T08:05:52;18.60;99.90
35246;DHT22;21379;50.962;6.960;2023-05-07T08:08:20;18.70;99.90
35246;DHT22;21379;50.962;6.960;2023-05-07T08:10:48;18.70;99.90
35246;DHT22;21379;50.962;6.960;2023-05-07T08:13:24;18.90;99.90
35246;DHT22;21379;50.962;6.960;2023-05-07T08:15:51;19.30;99.90
35246;DHT22;21379;50.962;6.960;2023-05-07T08:18:18;19.40;99.90
35246;DHT22;21379;50.962;6.960;2023-05-07T08:20:46;19.50;99.90
35246;DHT22;21379;50.962;6.960;2023-05-07T08:23:19;19.30;99.90
35246;DHT22;21379;50.962;6.960;2023-05-07T08:25:47;19.20;99.90
35246;DHT22;21379;50.962;6.960;2023-05-07T08:28:15;19.10;99.90
35246;DHT22;21379;50.962;6.960;2023-05-07T08:30:43;19.30;99.90
35246;DHT22;21379;50.962;6.960;2023-05-07T08:33:10;19.40;99.90
35246;DHT22;21379;50.962;6.960;2023-05-07T08:35:37;19.40;99.90
35246;DHT22;21379;50.962;6.960;2023-05-07T08:38:06;19.60;99.90
35246;DHT22;21379;50.962;6.960;2023-05-07T08:40:37;19.60;99.90
35246;DHT22;21379;50.962;6.960;2023-05-07T08:43:08;19.50;99.90
35246;DHT22;21379;50.962;6.960;2023-05-07T08:45:39;19.70;99.90
35246;DHT22;21379;50.962;6.960;2023-05-07T08:48:16;20.00;99.90
35246;DHT22;21379;50.962;6.960;2023-05-07T08:50:49;20.00;99.90
35246;DHT22;21379;50.962;6.960;2023-05-07T08:53:17;20.00;99.90
35246;DHT22;21379;50.962;6.960;2023-05-07T08:55:45;20.40;99.90
35246;DHT22;21379;50.962;6.960;2023-05-07T08:58:13;20.50;99.90
35246;DHT22;21379;50.962;6.960;2023-05-07T09:00:40;21.40;99.90
35246;DHT22;21379;50.962;6.960;2023-05-07T09:03:08;22.20;99.90
35246;DHT22;21379;50.962;6.960;2023-05-07T09:05:40;22.70;99.90
35246;DHT22;21379;50.962;6.960;2023-05-07T09:08:08;23.10;99.90
35246;DHT22;21379;50.962;6.960;2023-05-07T09:10:37;23.80;99.90
35246;DHT22;21379;50.962;6.960;2023-05-07T09:13:08;23.60;99.90
35246;DHT22;21379;50.962;6.960;2023-05-07T09:15:36;23.00;99.90
35246;DHT22;21379;50.962;6.960;2023-05-07T09:18:03;22.90;99.90
35246;DHT22;21379;50.962;6.960;2023-05-07T09:20:33;22.60;99.90
35246;DHT22;21379;50.962;6.960;2023-05-07T09:23:02;22.60;99.90
35246;DHT22;21379;50.962;6.960;2023-05-07T09:25:31;22.90;99.90
35246;DHT22;21379;50.962;6.960;2023-05-07T09:28:03;22.70;99.90
35246;DHT22;21379;50.962;6.960;2023-05-07T09:30:31;23.00;99.90
35246;DHT22;21379;50.962;6.960;2023-05-07T09:33:03;23.40;99.90
35246;DHT22;21379;50.962;6.960;2023-05-07T09:35:32;23.80;99.90
35246;DHT22;21379;50.962;6.960;2023-05-07T09:38:08;24.30;99.90
35246;DHT22;21379;50.962;6.960;2023-05-07T09:40:36;24.90;99.90
35246;DHT22;21379;50.962;6.960;2023-05-07T09:43:11;25.20;99.90
35246;DHT22;21379;50.962;6.960;2023-05-07T09:45:41;25.20;99.90
35246;DHT22;21379;50.962;6.960;2023-05-07T09:48:10;26.40;99.90
35246;DHT22;21379;50.962;6.960;2023-05-07T09:50:48;27.00;99.90
35246;DHT22;21379;50.962;6.960;2023-05-07T09:53:20;27.50;99.90
35246;DHT22;21379;50.962;6.960;2023-05-07T09:55:47;27.90;99.90
35246;DHT22;21379;50.962;6.960;2023-05-07T09:58:16;28.20;99.90
35246;DHT22;21379;50.962;6.960;2023-05-07T10:00:46;28.30;99.90
35246;DHT22;21379;50.962;6.960;2023-05-07T10:03:15;28.10;99.90
35246;DHT22;21379;50.962;6.960;2023-05-07T10:05:50;28.20;99.90
35246;DHT22;21379;50.962;6.960;2023-05-07T10:08:21;28.00;99.90
35246;DHT22;21379;50.962;6.960;2023-05-07T10:10:51;27.20;99.90
35246;DHT22;21379;50.962;6.960;2023-05-07T10:13:22;26.70;99.90
35246;DHT22;21379;50.962;6.960;2023-05-07T10:15:52;27.10;99.90
35246;DHT22;21379;50.962;6.960;2023-05-07T10:18:21;28.00;99.90
35246;DHT22;21379;50.962;6.960;2023-05-07T10:20:52;27.70;99.90
35246;DHT22;21379;50.962;6.960;2023-05-07T10:23:24;26.70;99.90
35246;DHT22;21379;50.962;6.960;2023-05-07T10:25:56;26.40;99.90
35246;DHT22;21379;50.962;6.960;2023-05-07T10:28:25;26.30;99.90
35246;DHT22;21379;50.962;6.960;2023-05-07T10:31:03;25.90;99.90
35246;DHT22;21379;50.962;6.960;2023-05-07T10:33:37;26.20;99.90
35246;DHT22;21379;50.962;6.960;2023-05-07T10:36:06;25.80;99.90
35246;DHT22;21379;50.962;6.960;2023-05-07T10:38:36;25.60;99.90
35246;DHT22;21379;50.962;6.960;2023-05-07T10:41:04;26.30;99.90
35246;DHT22;21379;50.962;6.960;2023-05-07T10:43:40;26.70;99.90
35246;DHT22;21379;50.962;6.960;2023-05-07T10:46:10;26.10;99.90
35246;DHT22;21379;50.962;6.960;2023-05-07T10:49:11;26.50;99.90
35246;DHT22;21379;50.962;6.960;2023-05-07T10:51:44;27.70;99.90
35246;DHT22;21379;50.962;6.960;2023-05-07T10:54:28;27.90;99.90
35246;DHT22;21379;50.962;6.960;2023-05-07T10:57:32;27.60;99.90
35246;DHT22;21379;50.962;6.960;2023-05-07T11:00:42;27.60;99.90
35246;DHT22;21379;50.962;6.960;2023-05-07T11:03:17;28.10;99.30
35246;DHT22;21379;50.962;6.960;2023-05-07T11:06:09;28.00;98.20
35246;DHT22;21379;50.962;6.960;2023-05-07T11:08:55;27.50;99.10
35246;DHT22;21379;50.962;6.960;2023-05-07T11:11:43;27.70;99.90
35246;DHT22;21379;50.962;6.960;2023-05-07T11:14:14;28.00;99.90
35246;DHT22;21379;50.962;6.960;2023-05-07T11:17:09;28.20;99.20
35246;DHT22;21379;50.962;6.960;2023-05-07T11:19:55;28.50;99.60
35246;DHT22;21379;50.962;6.960;2023-05-07T11:22:37;27.00;98.40
35246;DHT22;21379;50.962;6.960;2023-05-07T11:25:26;27.10;99.30
35246;DHT22;21379;50.962;6.960;2023-05-07T11:28:05;27.10;98.50
35246;DHT22;21379;50.962;6.960;2023-05-07T11:30:32;27.00;99.90
35246;DHT22;21379;50.962;6.960;2023-05-07T11:33:01;26.80;98.80
35246;DHT22;21379;50.962;6.960;2023-05-07T11:35:28;26.20;97.40
35246;DHT22;21379;50.962;6.960;2023-05-07T11:37:59;26.30;99.00
35246;DHT22;21379;50.962;6.960;2023-05-07T11:40:28;26.10;98.40
35246;DHT22;21379;50.962;6.960;2023-05-07T11:42:55;25.40;99.50
35246;DHT22;21379;50.962;6.960;2023-05-07T11:45:23;25.40;99.60
35246;DHT22;21379;50.962;6.960;2023-05-07T11:47:51;24.90;98.50
35246;DHT22;21379;50.962;6.960;2023-05-07T11:50:19;24.80;99.10
35246;DHT22;21379;50.962;6.960;2023-05-07T11:52:50;24.40;99.30
35246;DHT22;21379;50.962;6.960;2023-05-07T11:55:18;24.00;99.90
35246;DHT22;21379;50.962;6.960;2023-05-07T11:57:45;23.90;99.50
35246;DHT22;21379;50.962;6.960;2023-05-07T12:00:16;24.10;99.90
35246;DHT22;21379;50.962;6.960;2023-05-07T12:02:44;23.70;99.70
35246;DHT22;21379;50.962;6.960;2023-05-07T12:05:12;23.50;99.90
35246;DHT22;21379;50.962;6.960;2023-05-07T12:07:40;23.40;99.90
35246;DHT22;21379;50.962;6.960;2023-05-07T12:10:08;23.60;99.90
35246;DHT22;21379;50.962;6.960;2023-05-07T12:12:38;23.80;99.90
35246;DHT22;21379;50.962;6.960;2023-05-07T12:15:06;23.40;99.90
35246;DHT22;21379;50.962;6.960;2023-05-07T12:17:33;23.20;99.90
35246;DHT22;21379;50.962;6.960;2023-05-07T12:20:01;23.10;99.80
35246;DHT22;21379;50.962;6.960;2023-05-07T12:22:28;23.20;99.90
35246;DHT22;21379;50.962;6.960;2023-05-07T12:24:58;23.50;99.90
35246;DHT22;21379;50.962;6.960;2023-05-07T12:27:26;23.70;99.90
35246;DHT22;21379;50.962;6.960;2023-05-07T12:29:53;23.80;99.90
35246;DHT22;21379;50.962;6.960;2023-05-07T12:32:21;23.90;99.90
35246;DHT22;21379;50.962;6.960;2023-05-07T12:34:50;24.00;99.90
35246;DHT22;21379;50.962;6.960;2023-05-07T12:37:23;24.10;99.70
35246;DHT22;21379;50.962;6.960;2023-05-07T12:40:05;24.20;99.90
35246;DHT22;21379;50.962;6.960;2023-05-07T12:42:33;24.00;99.90
35246;DHT22;21379;50.962;6.960;2023-05-07T12:45:08;23.90;99.90
35246;DHT22;21379;50.962;6.960;2023-05-07T12:47:35;23.60;99.90
35246;DHT22;21379;50.962;6.960;2023-05-07T12:50:05;23.60;99.90
35246;DHT22;21379;50.962;6.960;2023-05-07T12:52:33;23.60;99.90
35246;DHT22;21379;50.962;6.960;2023-05-07T12:55:06;23.50;99.90
35246;DHT22;21379;50.962;6.960;2023-05-07T12:57:38;23.50;99.90
35246;DHT22;21379;50.962;6.960;2023-05-07T13:00:06;23.20;99.90
35246;DHT22;21379;50.962;6.960;2023-05-07T13:02:37;23.00;99.90
35246;DHT22;21379;50.962;6.960;2023-05-07T13:05:04;23.00;99.90
35246;DHT22;21379;50.962;6.960;2023-05-07T13:07:31;23.00;99.90
35246;DHT22;21379;50.962;6.960;2023-05-07T13:09:58;23.00;99.90
35246;DHT22;21379;50.962;6.960;2023-05-07T13:12:26;22.90;99.90
35246;DHT22;21379;50.962;6.960;2023-05-07T13:14:53;22.70;99.90
35246;DHT22;21379;50.962;6.960;2023-05-07T13:17:20;22.60;99.90
35246;DHT22;21379;50.962;6.960;2023-05-07T13:19:47;22.50;99.90
35246;DHT22;21379;50.962;6.960;2023-05-07T13:22:14;22.50;99.90
35246;DHT22;21379;50.962;6.960;2023-05-07T13:24:40;22.40;99.90
35246;DHT22;21379;50.962;6.960;2023-05-07T13:27:09;22.40;99.90
35246;DHT22;21379;50.962;6.960;2023-05-07T13:29:37;22.50;99.90
35246;DHT22;21379;50.962;6.960;2023-05-07T13:32:04;22.50;99.90
35246;DHT22;21379;50.962;6.960;2023-05-07T13:34:31;22.50;99.90
35246;DHT22;21379;50.962;6.960;2023-05-07T13:36:58;22.70;99.90
35246;DHT22;21379;50.962;6.960;2023-05-07T13:39:25;22.70;99.90
35246;DHT22;21379;50.962;6.960;2023-05-07T13:41:52;22.70;99.90
35246;DHT22;21379;50.962;6.960;2023-05-07T13:44:18;22.50;99.90
35246;DHT22;21379;50.962;6.960;2023-05-07T13:46:47;22.40;99.90
35246;DHT22;21379;50.962;6.960;2023-05-07T13:49:14;22.50;99.90
35246;DHT22;21379;50.962;6.960;2023-05-07T13:51:41;22.60;99.90
35246;DHT22;21379;50.962;6.960;2023-05-07T13:54:08;22.50;99.90
35246;DHT22;21379;50.962;6.960;2023-05-07T13:56:35;22.50;99.90
35246;DHT22;21379;50.962;6.960;2023-05-07T13:59:02;22.50;99.90
35246;DHT22;21379;50.962;6.960;2023-05-07T14:01:30;22.50;99.90
35246;DHT22;21379;50.962;6.960;2023-05-07T14:03:59;22.30;99.90
35246;DHT22;21379;50.962;6.960;2023-05-07T14:06:25;22.10;99.90
35246;DHT22;21379;50.962;6.960;2023-05-07T14:08:52;22.10;99.90
35246;DHT22;21379;50.962;6.960;2023-05-07T14:11:19;22.10;99.90
35246;DHT22;21379;50.962;6.960;2023-05-07T14:13:46;22.00;99.90
35246;DHT22;21379;50.962;6.960;2023-05-07T14:16:13;22.00;99.90
35246;DHT22;21379;50.962;6.960;2023-05-07T14:18:40;22.00;99.90
35246;DHT22;21379;50.962;6.960;2023-05-07T14:21:08;22.00;99.90
35246;DHT22;21379;50.962;6.960;2023-05-07T14:23:36;22.10;99.90
35246;DHT22;21379;50.962;6.960;2023-05-07T14:26:03;22.20;99.90
35246;DHT22;21379;50.962;6.960;2023-05-07T14:28:30;22.20;99.90
35246;DHT22;21379;50.962;6.960;2023-05-07T14:30:57;22.40;99.90
35246;DHT22;21379;50.962;6.960;2023-05-07T14:33:23;22.40;99.90
35246;DHT22;21379;50.962;6.960;2023-05-07T14:35:50;22.40;99.90
35246;DHT22;21379;50.962;6.960;2023-05-07T14:38:19;22.40;99.90
35246;DHT22;21379;50.962;6.960;2023-05-07T14:40:46;22.40;99.90
35246;DHT22;21379;50.962;6.960;2023-05-07T14:43:12;22.40;99.90
35246;DHT22;21379;50.962;6.960;2023-05-07T14:45:39;22.40;99.90
35246;DHT22;21379;50.962;6.960;2023-05-07T14:48:06;22.20;99.90
35246;DHT22;21379;50.962;6.960;2023-05-07T14:50:34;22.20;99.90
35246;DHT22;21379;50.962;6.960;2023-05-07T14:53:01;21.90;99.90
35246;DHT22;21379;50.962;6.960;2023-05-07T14:55:30;21.70;99.90
35246;DHT22;21379;50.962;6.960;2023-05-07T14:57:57;21.30;99.90
35246;DHT22;21379;50.962;6.960;2023-05-07T15:00:24;21.30;99.90
35246;DHT22;21379;50.962;6.960;2023-05-07T15:02:51;21.30;99.90
35246;DHT22;21379;50.962;6.960;2023-05-07T15:05:18;21.40;99.90
35246;DHT22;21379;50.962;6.960;2023-05-07T15:07:45;21.30;99.90
35246;DHT22;21379;50.962;6.960;2023-05-07T15:10:12;21.30;99.90
35246;DHT22;21379;50.962;6.960;2023-05-07T15:12:41;21.10;99.90
35246;DHT22;21379;50.962;6.960;2023-05-07T15:15:09;21.00;99.90
35246;DHT22;21379;50.962;6.960;2023-05-07T15:17:36;21.00;99.90
35246;DHT22;21379;50.962;6.960;2023-05-07T15:20:03;20.90;99.90
35246;DHT22;21379;50.962;6.960;2023-05-07T15:22:31;20.90;99.90
35246;DHT22;21379;50.962;6.960;2023-05-07T15:25:00;20.90;99.90
35246;DHT22;21379;50.962;6.960;2023-05-07T15:27:27;20.90;99.90
35246;DHT22;21379;50.962;6.960;2023-05-07T15:29:55;20.90;99.90
35246;DHT22;21379;50.962;6.960;2023-05-07T15:32:22;21.10;99.90
35246;DHT22;21379;50.962;6.960;2023-05-07T15:34:52;21.20;99.90
35246;DHT22;21379;50.962;6.960;2023-05-07T15:37:19;21.30;99.90
35246;DHT22;21379;50.962;6.960;2023-05-07T15:39:46;21.40;99.90
35246;DHT22;21379;50.962;6.960;2023-05-07T15:42:12;21.20;99.90